Time;durP1;ratioP1;P1;durP2;ratioP2;P2;SDS_P1;SDS_P2;PMS_P1;PMS_P2;Temp;Humidity;BMP_temperature;BMP_pressure;BME280_temperature;BME280_humidity;BME280_pressure;Samples;Min_cycle;Max_cycle;Signal;HPM_P1;HPM_P2
2023/03/24 00:01:00;;;;;;;;;;;;;;;;;;5047358;28;4949;-67
2023/03/24 00:03:26;;;;;;;;;;;;;;;;;;5041264;28;4613;-65
2023/03/24 00:05:57;;;;;;;;;;;;;;;;;;5047571;28;4629;-66
2023/03/24 00:08:22;;;;;;;;;;;;;;;;;;5047308;28;4810;-66
2023/03/24 00:10:48;;;;;;;;;;;;;;;;;;5041764;28;4510;-67
2023/03/24 00:13:15;;;;;;;;;;;;;;;;;;5048138;28;1222;-65
2023/03/24 00:15:40;;;;;;;;;;;;;;;;;;5047850;28;4445;-66
2023/03/24 00:18:09;;;;;;;;;;;;;;;;;;5048323;28;5100;-66
2023/03/24 00:20:35;;;;;;;;;;;;;;;;;;5048528;28;4645;-67
2023/03/24 00:23:00;;;;;;;;;;;;;;;;;;5047820;28;4440;-67
2023/03/24 00:25:34;;;;;;;;;;;;;;;;;;5035804;28;1914;-67
2023/03/24 00:28:00;;;;;;;;;;;;;;;;;;5044929;28;4423;-67
2023/03/24 00:30:25;;;;;;;;;;;;;;;;;;5037706;28;5199;-68
2023/03/24 00:32:51;;;;;;;;;;;;;;;;;;5042311;28;4696;-66
2023/03/24 00:35:16;;;;;;;;;;;;;;;;;;5039816;28;4525;-65
2023/03/24 00:37:43;;;;;;;;;;;;;;;;;;5038201;28;1157;-67
2023/03/24 00:40:11;;;;;;;;;;;;;;;;;;5036122;28;4576;-67
2023/03/24 00:42:36;;;;;;;;;;;;;;;;;;5045000;28;5296;-60
2023/03/24 00:45:02;;;;;;;;;;;;;;;;;;5037725;28;4852;-65
2023/03/24 00:47:28;;;;;;;;;;;;;;;;;;5046642;28;4882;-63
2023/03/24 00:49:56;;;;;;;;;;;;;;;;;;5038145;28;4673;-68
2023/03/24 00:52:22;;;;;;;;;;;;;;;;;;5034651;28;1151;-68
2023/03/24 00:54:48;;;;;;;;;;;;;;;;;;5043622;28;4416;-65
2023/03/24 00:57:14;;;;;;;;;;;;;;;;;;5042042;28;4883;-66
2023/03/24 00:59:47;;;;;;;;;;;;;;;;;;5047413;28;4480;-67
2023/03/24 01:02:12;;;;;;;;;;;;;;;;;;5079119;28;4639;-66
2023/03/24 01:04:38;;;;;;;;;;;;;;;;;;5079834;28;4664;-67
2023/03/24 01:07:04;;;;;;;;;;;;;;;;;;5039180;28;4442;-66
2023/03/24 01:09:29;;;;;;;;;;;;;;;;;;5047241;28;4971;-66
2023/03/24 01:11:55;;;;;;;;;;;;;;;;;;5046792;28;5165;-68
2023/03/24 01:14:20;;;;;;;;;;;;;;;;;;5038451;28;4654;-66
2023/03/24 01:16:45;;;;;;;;;;;;;;;;;;5041672;28;4680;-62
2023/03/24 01:19:11;;;;;;;;;;;;;;;;;;5043150;28;2020;-65
2023/03/24 01:21:36;;;;;;;;;;;;;;;;;;5046460;28;5527;-65
2023/03/24 01:24:03;;;;;;;;;;;;;;;;;;5048987;28;4487;-63
2023/03/24 01:26:29;;;;;;;;;;;;;;;;;;5049368;28;4584;-67
2023/03/24 01:28:54;;;;;;;;;;;;;;;;;;5050908;28;4491;-68
2023/03/24 01:31:19;;;;;;;;;;;;;;;;;;5044309;28;965;-68
2023/03/24 01:33:45;;;;;;;;;;;;;;;;;;5050991;28;4443;-67
2023/03/24 01:36:10;;;;;;;;;;;;;;;;;;5036444;28;5442;-67
2023/03/24 01:38:35;;;;;;;;;;;;;;;;;;5047975;28;4494;-65
2023/03/24 01:41:01;;;;;;;;;;;;;;;;;;5041535;28;4652;-67
2023/03/24 01:43:29;;;;;;;;;;;;;;;;;;5045649;28;1109;-65
2023/03/24 01:46:05;;;;;;;;;;;;;;;;;;5044095;28;4632;-67
2023/03/24 01:48:42;;;;;;;;;;;;;;;;;;5049238;28;4546;-66
2023/03/24 01:51:09;;;;;;;;;;;;;;;;;;5048589;28;5619;-64
2023/03/24 01:53:36;;;;;;;;;;;;;;;;;;5042326;28;4897;-67
2023/03/24 01:56:01;;;;;;;;;;;;;;;;;;5046793;28;4488;-65
2023/03/24 01:58:27;;;;;;;;;;;;;;;;;;5039630;28;1140;-67
2023/03/24 02:00:53;;;;;;;;;;;;;;;;;;5046131;28;4600;-66
2023/03/24 02:03:19;;;;;;;;;;;;;;;;;;5037842;28;4652;-67
2023/03/24 02:05:45;;;;;;;;;;;;;;;;;;5041481;28;4633;-66
2023/03/24 02:08:19;;;;;;;;;;;;;;;;;;5046858;28;4994;-68
2023/03/24 02:10:44;;;;;;;;;;;;;;;;;;5046913;28;1135;-68
2023/03/24 02:13:10;;;;;;;;;;;;;;;;;;5033867;28;4486;-68
2023/03/24 02:15:37;;;;;;;;;;;;;;;;;;5048606;28;4537;-66
2023/03/24 02:18:17;;;;;;;;;;;;;;;;;;5047488;28;4497;-68
2023/03/24 02:21:02;;;;;;;;;;;;;;;;;;5080199;28;4515;-67
2023/03/24 02:23:27;;;;;;;;;;;;;;;;;;5050283;28;4473;-67
2023/03/24 02:26:11;;;;;;;;;;;;;;;;;;5039998;28;5056;-65
2023/03/24 02:28:48;;;;;;;;;;;;;;;;;;5048657;28;1124;-63
2023/03/24 02:31:16;;;;;;;;;;;;;;;;;;5030006;28;5236;-67
2023/03/24 02:33:59;;;;;;;;;;;;;;;;;;5048351;28;5186;-67
2023/03/24 02:36:32;;;;;;;;;;;;;;;;;;5049503;28;4812;-68
2023/03/24 02:39:17;;;;;;;;;;;;;;;;;;5048517;28;4577;-65
2023/03/24 02:42:09;;;;;;;;;;;;;;;;;;5024905;28;4514;-66
2023/03/24 02:45:04;;;;;;;;;;;;;;;;;;5041982;28;4685;-67
2023/03/24 02:47:49;;;;;;;;;;;;;;;;;;5045773;28;5297;-66
2023/03/24 02:50:22;;;;;;;;;;;;;;;;;;5047653;28;4497;-67
2023/03/24 02:52:49;;;;;;;;;;;;;;;;;;5081385;28;4474;-67
2023/03/24 02:55:33;;;;;;;;;;;;;;;;;;5040482;28;1372;-67
2023/03/24 02:58:10;;;;;;;;;;;;;;;;;;5046723;28;4959;-67
2023/03/24 03:00:35;;;;;;;;;;;;;;;;;;5046695;28;4580;-68
2023/03/24 03:03:02;;;;;;;;;;;;;;;;;;5048811;28;5041;-67
2023/03/24 03:05:30;;;;;;;;;;;;;;;;;;5047051;28;5013;-66
2023/03/24 03:07:56;;;;;;;;;;;;;;;;;;5080194;28;4690;-67
2023/03/24 03:10:23;;;;;;;;;;;;;;;;;;5047757;28;1229;-66
2023/03/24 03:12:48;;;;;;;;;;;;;;;;;;5080670;28;4783;-66
2023/03/24 03:15:31;;;;;;;;;;;;;;;;;;5039649;28;4696;-68
2023/03/24 03:18:07;;;;;;;;;;;;;;;;;;5042358;28;5118;-67
2023/03/24 03:20:35;;;;;;;;;;;;;;;;;;5040829;28;4955;-67
2023/03/24 03:23:04;;;;;;;;;;;;;;;;;;5037312;28;4652;-68
2023/03/24 03:25:32;;;;;;;;;;;;;;;;;;5042573;28;1951;-67
2023/03/24 03:27:58;;;;;;;;;;;;;;;;;;5043107;28;4443;-65
2023/03/24 03:30:36;;;;;;;;;;;;;;;;;;5076438;28;4526;-67
2023/03/24 03:33:04;;;;;;;;;;;;;;;;;;5047369;28;5033;-68
2023/03/24 03:35:37;;;;;;;;;;;;;;;;;;5044005;28;5028;-66
2023/03/24 03:38:20;;;;;;;;;;;;;;;;;;5080950;28;5018;-65
2023/03/24 03:40:49;;;;;;;;;;;;;;;;;;5048662;28;5379;-66
2023/03/24 03:43:15;;;;;;;;;;;;;;;;;;5046483;28;1140;-68
2023/03/24 03:45:40;;;;;;;;;;;;;;;;;;5047970;28;4503;-68
2023/03/24 03:48:05;;;;;;;;;;;;;;;;;;5048047;28;4887;-67
2023/03/24 03:50:30;;;;;;;;;;;;;;;;;;5046795;28;4464;-67
2023/03/24 03:52:56;;;;;;;;;;;;;;;;;;5048120;28;4833;-66
2023/03/24 03:55:21;;;;;;;;;;;;;;;;;;5038516;28;1522;-67
2023/03/24 03:57:47;;;;;;;;;;;;;;;;;;5043499;28;4726;-67
2023/03/24 04:00:16;;;;;;;;;;;;;;;;;;5048013;28;4661;-65
2023/03/24 04:02:47;;;;;;;;;;;;;;;;;;5047831;28;4982;-65
2023/03/24 04:05:18;;;;;;;;;;;;;;;;;;5043201;28;4701;-67
2023/03/24 04:07:43;;;;;;;;;;;;;;;;;;5046851;28;2003;-68
2023/03/24 04:10:38;;;;;;;;;;;;;;;;;;5039730;28;4411;-67
2023/03/24 04:13:06;;;;;;;;;;;;;;;;;;5041724;28;4495;-66
2023/03/24 04:15:58;;;;;;;;;;;;;;;;;;5047623;28;4438;-67
2023/03/24 04:18:32;;;;;;;;;;;;;;;;;;5039798;28;4574;-67
2023/03/24 04:21:05;;;;;;;;;;;;;;;;;;5047479;28;5508;-68
2023/03/24 04:23:38;;;;;;;;;;;;;;;;;;5044237;28;4439;-67
2023/03/24 04:26:25;;;;;;;;;;;;;;;;;;5039975;28;5051;-68
2023/03/24 04:29:02;;;;;;;;;;;;;;;;;;5043789;28;5041;-67
2023/03/24 04:31:32;;;;;;;;;;;;;;;;;;5045762;28;1134;-68
2023/03/24 04:34:02;;;;;;;;;;;;;;;;;;5046226;28;4641;-69
2023/03/24 04:36:49;;;;;;;;;;;;;;;;;;5079286;28;4470;-67
2023/03/24 04:39:18;;;;;;;;;;;;;;;;;;5039518;28;4477;-68
2023/03/24 04:41:43;;;;;;;;;;;;;;;;;;5076947;28;4663;-67
2023/03/24 04:44:09;;;;;;;;;;;;;;;;;;5047799;28;4606;-67
2023/03/24 04:46:35;;;;;;;;;;;;;;;;;;5074037;28;1966;-65
2023/03/24 04:49:01;;;;;;;;;;;;;;;;;;5047725;28;4827;-67
2023/03/24 04:51:27;;;;;;;;;;;;;;;;;;5045068;28;4506;-66
2023/03/24 04:53:52;;;;;;;;;;;;;;;;;;5079800;28;4723;-67
2023/03/24 04:56:35;;;;;;;;;;;;;;;;;;5046173;28;5461;-60
2023/03/24 04:59:01;;;;;;;;;;;;;;;;;;5041266;28;4472;-66
2023/03/24 05:01:28;;;;;;;;;;;;;;;;;;5037958;28;1171;-67
2023/03/24 05:03:54;;;;;;;;;;;;;;;;;;5049490;28;4874;-66
2023/03/24 05:06:20;;;;;;;;;;;;;;;;;;5044261;28;4994;-67
2023/03/24 05:08:46;;;;;;;;;;;;;;;;;;5050418;28;4453;-66
2023/03/24 05:11:11;;;;;;;;;;;;;;;;;;5050807;28;4879;-68
2023/03/24 05:13:36;;;;;;;;;;;;;;;;;;5050642;28;1276;-62
2023/03/24 05:16:02;;;;;;;;;;;;;;;;;;5042227;28;4438;-66
2023/03/24 05:18:27;;;;;;;;;;;;;;;;;;5045134;28;4957;-67
2023/03/24 05:20:53;;;;;;;;;;;;;;;;;;5043938;28;4657;-66
2023/03/24 05:23:18;;;;;;;;;;;;;;;;;;5047713;28;4723;-67
2023/03/24 05:25:44;;;;;;;;;;;;;;;;;;5044076;28;1921;-66
2023/03/24 05:28:10;;;;;;;;;;;;;;;;;;5045665;28;4473;-67
2023/03/24 05:30:35;;;;;;;;;;;;;;;;;;5046761;28;4531;-67
2023/03/24 05:33:00;;;;;;;;;;;;;;;;;;5050907;28;5328;-66
2023/03/24 05:35:26;;;;;;;;;;;;;;;;;;5048295;28;4636;-68
2023/03/24 05:37:51;;;;;;;;;;;;;;;;;;5049275;28;4498;-66
2023/03/24 05:40:17;;;;;;;;;;;;;;;;;;5050954;28;1292;-66
2023/03/24 05:42:42;;;;;;;;;;;;;;;;;;5047999;28;4558;-64
2023/03/24 05:45:08;;;;;;;;;;;;;;;;;;5050014;28;4971;-66
2023/03/24 05:47:33;;;;;;;;;;;;;;;;;;5050454;28;4676;-65
2023/03/24 05:49:59;;;;;;;;;;;;;;;;;;5048691;28;4508;-66
2023/03/24 05:52:24;;;;;;;;;;;;;;;;;;5082578;28;1041;-67
2023/03/24 05:54:51;;;;;;;;;;;;;;;;;;5046143;28;4671;-66
2023/03/24 05:57:16;;;;;;;;;;;;;;;;;;5046718;28;4538;-66
2023/03/24 05:59:41;;;;;;;;;;;;;;;;;;5049752;28;5046;-68
2023/03/24 06:02:07;;;;;;;;;;;;;;;;;;5045382;28;4686;-60
2023/03/24 06:04:32;;;;;;;;;;;;;;;;;;5049821;28;4669;-64
2023/03/24 06:06:57;;;;;;;;;;;;;;;;;;5048719;28;5062;-67
2023/03/24 06:09:31;;;;;;;;;;;;;;;;;;5049880;28;4795;-67
2023/03/24 06:11:57;;;;;;;;;;;;;;;;;;5046440;28;4494;-67
2023/03/24 06:14:22;;;;;;;;;;;;;;;;;;5049706;28;4454;-68
2023/03/24 06:16:49;;;;;;;;;;;;;;;;;;5044080;28;4726;-68
2023/03/24 06:19:14;;;;;;;;;;;;;;;;;;5044125;28;3281;-66
2023/03/24 06:21:39;;;;;;;;;;;;;;;;;;5039990;28;4841;-65
2023/03/24 06:24:05;;;;;;;;;;;;;;;;;;5041353;28;4987;-67
2023/03/24 06:26:30;;;;;;;;;;;;;;;;;;5042717;28;4515;-68
2023/03/24 06:28:56;;;;;;;;;;;;;;;;;;5043162;28;4517;-70
2023/03/24 06:31:22;;;;;;;;;;;;;;;;;;5036442;28;3193;-69
2023/03/24 06:33:48;;;;;;;;;;;;;;;;;;5031860;28;4657;-66
2023/03/24 06:36:13;;;;;;;;;;;;;;;;;;5050818;28;4727;-66
2023/03/24 06:38:39;;;;;;;;;;;;;;;;;;5045929;28;5146;-66
2023/03/24 06:41:04;;;;;;;;;;;;;;;;;;5036504;28;4738;-67
2023/03/24 06:43:30;;;;;;;;;;;;;;;;;;5036614;28;3419;-68
2023/03/24 06:45:55;;;;;;;;;;;;;;;;;;5037085;28;4887;-71
2023/03/24 06:48:21;;;;;;;;;;;;;;;;;;5033527;28;6124;-70
2023/03/24 06:50:46;;;;;;;;;;;;;;;;;;5032778;28;4520;-72
2023/03/24 06:53:11;;;;;;;;;;;;;;;;;;5037408;28;4485;-66
2023/03/24 06:55:37;;;;;;;;;;;;;;;;;;5036544;28;3304;-70
2023/03/24 06:58:02;;;;;;;;;;;;;;;;;;5034186;28;4590;-67
2023/03/24 07:00:28;;;;;;;;;;;;;;;;;;5030561;28;4599;-68
2023/03/24 07:02:53;;;;;;;;;;;;;;;;;;5043536;28;5219;-69
2023/03/24 07:05:19;;;;;;;;;;;;;;;;;;5042706;28;4636;-69
2023/03/24 07:07:44;;;;;;;;;;;;;;;;;;5035884;28;3330;-68
2023/03/24 07:10:12;;;;;;;;;;;;;;;;;;5046746;28;4760;-68
2023/03/24 07:12:37;;;;;;;;;;;;;;;;;;5041215;28;4519;-69
2023/03/24 07:15:03;;;;;;;;;;;;;;;;;;5048279;28;5006;-64
2023/03/24 07:17:28;;;;;;;;;;;;;;;;;;5046662;28;4604;-70
2023/03/24 07:19:53;;;;;;;;;;;;;;;;;;5048415;28;4646;-69
2023/03/24 07:22:19;;;;;;;;;;;;;;;;;;5042616;28;3096;-70
2023/03/24 07:24:44;;;;;;;;;;;;;;;;;;5043809;28;4365;-68
2023/03/24 07:27:10;;;;;;;;;;;;;;;;;;5040813;28;5035;-69
2023/03/24 07:29:35;;;;;;;;;;;;;;;;;;5041294;28;4545;-70
2023/03/24 07:32:00;;;;;;;;;;;;;;;;;;5041013;28;4683;-71
2023/03/24 07:34:26;;;;;;;;;;;;;;;;;;5044911;28;1265;-66
2023/03/24 07:36:52;;;;;;;;;;;;;;;;;;5034421;28;4984;-70
2023/03/24 07:39:17;;;;;;;;;;;;;;;;;;5046263;28;5033;-68
2023/03/24 07:41:42;;;;;;;;;;;;;;;;;;5045115;28;5043;-67
2023/03/24 07:44:08;;;;;;;;;;;;;;;;;;5045556;28;4570;-70
2023/03/24 07:46:33;;;;;;;;;;;;;;;;;;5048545;28;1981;-70
2023/03/24 07:48:58;;;;;;;;;;;;;;;;;;5077562;28;4485;-71
2023/03/24 07:51:24;;;;;;;;;;;;;;;;;;5045674;28;5101;-70
2023/03/24 07:53:49;;;;;;;;;;;;;;;;;;5045199;28;4506;-72
2023/03/24 07:56:14;;;;;;;;;;;;;;;;;;5046359;28;4468;-60
2023/03/24 07:58:40;;;;;;;;;;;;;;;;;;5044851;28;3158;-70
2023/03/24 08:01:06;;;;;;;;;;;;;;;;;;5041442;28;4488;-68
2023/03/24 08:03:32;;;;;;;;;;;;;;;;;;5039610;28;4507;-70
2023/03/24 08:05:57;;;;;;;;;;;;;;;;;;5041972;28;5100;-71
2023/03/24 08:08:22;;;;;;;;;;;;;;;;;;5045702;28;4435;-69
2023/03/24 08:10:49;;;;;;;;;;;;;;;;;;5044846;28;4654;-69
2023/03/24 08:13:15;;;;;;;;;;;;;;;;;;5046772;28;1272;-68
2023/03/24 08:15:40;;;;;;;;;;;;;;;;;;5046480;28;5119;-67
2023/03/24 08:18:05;;;;;;;;;;;;;;;;;;5046319;28;4508;-66
2023/03/24 08:20:31;;;;;;;;;;;;;;;;;;5046148;28;4945;-69
2023/03/24 08:22:56;;;;;;;;;;;;;;;;;;5024364;28;4679;-69
2023/03/24 08:25:22;;;;;;;;;;;;;;;;;;5032811;28;1405;-69
2023/03/24 08:27:47;;;;;;;;;;;;;;;;;;5047854;28;5187;-69
2023/03/24 08:30:14;;;;;;;;;;;;;;;;;;5043797;28;5024;-70
2023/03/24 08:32:46;;;;;;;;;;;;;;;;;;5044001;28;4466;-70
2023/03/24 08:35:14;;;;;;;;;;;;;;;;;;5050431;28;4487;-67
2023/03/24 08:37:43;;;;;;;;;;;;;;;;;;5041811;28;1065;-69
2023/03/24 08:40:13;;;;;;;;;;;;;;;;;;5042867;28;4792;-62
2023/03/24 08:42:39;;;;;;;;;;;;;;;;;;5050123;28;4447;-69
2023/03/24 08:45:04;;;;;;;;;;;;;;;;;;5048205;28;4732;-68
2023/03/24 08:47:30;;;;;;;;;;;;;;;;;;5043713;28;4666;-70
2023/03/24 08:49:58;;;;;;;;;;;;;;;;;;5049753;28;5097;-69
2023/03/24 08:52:24;;;;;;;;;;;;;;;;;;5044291;28;3238;-71
2023/03/24 08:54:50;;;;;;;;;;;;;;;;;;5037572;28;5124;-71
2023/03/24 08:57:16;;;;;;;;;;;;;;;;;;5038542;28;4615;-71
2023/03/24 08:59:41;;;;;;;;;;;;;;;;;;5042996;28;4588;-67
2023/03/24 09:02:07;;;;;;;;;;;;;;;;;;5041631;28;4491;-70
2023/03/24 09:04:33;;;;;;;;;;;;;;;;;;5075866;28;4684;-67
2023/03/24 09:06:59;;;;;;;;;;;;;;;;;;5043379;28;4654;-68
2023/03/24 09:09:24;;;;;;;;;;;;;;;;;;5042679;28;4507;-69
2023/03/24 09:11:49;;;;;;;;;;;;;;;;;;5042811;28;4466;-67
2023/03/24 09:14:15;;;;;;;;;;;;;;;;;;5035841;28;4531;-70
2023/03/24 09:16:42;;;;;;;;;;;;;;;;;;5051493;28;1201;-70
2023/03/24 09:19:08;;;;;;;;;;;;;;;;;;5042877;28;4944;-67
2023/03/24 09:21:33;;;;;;;;;;;;;;;;;;5042307;28;4455;-68
2023/03/24 09:23:58;;;;;;;;;;;;;;;;;;5036969;28;4510;-70
2023/03/24 09:26:24;;;;;;;;;;;;;;;;;;5039520;28;4983;-69
2023/03/24 09:28:49;;;;;;;;;;;;;;;;;;5040006;28;4803;-70
2023/03/24 09:31:14;;;;;;;;;;;;;;;;;;5049625;28;3489;-71
2023/03/24 09:33:40;;;;;;;;;;;;;;;;;;5035947;28;5010;-69
2023/03/24 09:36:05;;;;;;;;;;;;;;;;;;5043406;28;5105;-68
2023/03/24 09:38:32;;;;;;;;;;;;;;;;;;5045120;28;4544;-69
2023/03/24 09:41:00;;;;;;;;;;;;;;;;;;5037095;28;4495;-68
2023/03/24 09:43:25;;;;;;;;;;;;;;;;;;5044264;28;3441;-71
2023/03/24 09:45:52;;;;;;;;;;;;;;;;;;5041146;28;4422;-69
2023/03/24 09:48:19;;;;;;;;;;;;;;;;;;5035353;28;4573;-64
2023/03/24 09:51:04;;;;;;;;;;;;;;;;;;5037721;28;4471;-68
2023/03/24 09:53:38;;;;;;;;;;;;;;;;;;5039426;28;4579;-69
2023/03/24 09:56:13;;;;;;;;;;;;;;;;;;5035509;28;4766;-67
2023/03/24 09:58:40;;;;;;;;;;;;;;;;;;5030972;28;3288;-65
2023/03/24 10:01:08;;;;;;;;;;;;;;;;;;5036842;28;4942;-68
2023/03/24 10:03:33;;;;;;;;;;;;;;;;;;5039018;28;4490;-67
2023/03/24 10:06:07;;;;;;;;;;;;;;;;;;5041114;28;4776;-68
2023/03/24 10:08:36;;;;;;;;;;;;;;;;;;5043589;28;4675;-69
2023/03/24 10:11:07;;;;;;;;;;;;;;;;;;5038015;28;4500;-68
2023/03/24 10:13:39;;;;;;;;;;;;;;;;;;5038797;28;3328;-65
2023/03/24 10:16:19;;;;;;;;;;;;;;;;;;5039044;28;4571;-66
2023/03/24 10:18:46;;;;;;;;;;;;;;;;;;5044216;28;4427;-66
2023/03/24 10:21:21;;;;;;;;;;;;;;;;;;5075596;28;4512;-61
2023/03/24 10:23:50;;;;;;;;;;;;;;;;;;5044534;28;4924;-71
2023/03/24 10:26:21;;;;;;;;;;;;;;;;;;5039916;28;4679;-67
2023/03/24 10:28:49;;;;;;;;;;;;;;;;;;5048692;28;4536;-67
2023/03/24 10:31:15;;;;;;;;;;;;;;;;;;5037861;28;3220;-62
2023/03/24 10:33:41;;;;;;;;;;;;;;;;;;5037832;28;4654;-64
2023/03/24 10:36:08;;;;;;;;;;;;;;;;;;5065739;28;4482;-64
2023/03/24 10:38:34;;;;;;;;;;;;;;;;;;5040787;28;4542;-68
2023/03/24 10:40:59;;;;;;;;;;;;;;;;;;5049514;28;5094;-71
2023/03/24 10:43:25;;;;;;;;;;;;;;;;;;5045608;28;2307;-70
2023/03/24 10:45:51;;;;;;;;;;;;;;;;;;5041473;28;4610;-66
2023/03/24 10:48:34;;;;;;;;;;;;;;;;;;5048642;28;5125;-67
2023/03/24 10:51:00;;;;;;;;;;;;;;;;;;5046467;28;4441;-68
2023/03/24 10:53:26;;;;;;;;;;;;;;;;;;5042958;28;5021;-65
2023/03/24 10:55:51;;;;;;;;;;;;;;;;;;5039778;28;4509;-66
2023/03/24 10:58:19;;;;;;;;;;;;;;;;;;5044424;28;1250;-66
2023/03/24 11:00:44;;;;;;;;;;;;;;;;;;5044981;28;4480;-63
2023/03/24 11:03:16;;;;;;;;;;;;;;;;;;5037342;28;4506;-64
2023/03/24 11:05:42;;;;;;;;;;;;;;;;;;5042906;28;4555;-66
2023/03/24 11:08:18;;;;;;;;;;;;;;;;;;5023488;28;4495;-65
2023/03/24 11:10:43;;;;;;;;;;;;;;;;;;5023105;28;3263;-66
2023/03/24 11:13:15;;;;;;;;;;;;;;;;;;5039857;28;4436;-65
2023/03/24 11:15:41;;;;;;;;;;;;;;;;;;5042727;28;4969;-63
2023/03/24 11:18:07;;;;;;;;;;;;;;;;;;5044709;28;4658;-62
2023/03/24 11:20:34;;;;;;;;;;;;;;;;;;5044599;28;4665;-61
2023/03/24 11:22:59;;;;;;;;;;;;;;;;;;5043654;28;4656;-63
2023/03/24 11:25:26;;;;;;;;;;;;;;;;;;5041604;28;1377;-62
2023/03/24 11:27:52;;;;;;;;;;;;;;;;;;5044388;28;4469;-63
2023/03/24 11:30:17;;;;;;;;;;;;;;;;;;5074161;28;5055;-59
2023/03/24 11:32:44;;;;;;;;;;;;;;;;;;5042563;28;5160;-68
2023/03/24 11:35:12;;;;;;;;;;;;;;;;;;5074104;28;4964;-69
2023/03/24 11:37:40;;;;;;;;;;;;;;;;;;5026292;28;3638;-66
2023/03/24 11:40:11;;;;;;;;;;;;;;;;;;5043011;28;4792;-66
2023/03/24 11:42:40;;;;;;;;;;;;;;;;;;5046012;28;4453;-73
2023/03/24 11:45:15;;;;;;;;;;;;;;;;;;5046186;28;4619;-75
2023/03/24 11:47:40;;;;;;;;;;;;;;;;;;5072601;28;4586;-70
2023/03/24 11:50:08;;;;;;;;;;;;;;;;;;5044622;28;4529;-71
2023/03/24 11:52:54;;;;;;;;;;;;;;;;;;5046298;28;1092;-73
2023/03/24 11:55:28;;;;;;;;;;;;;;;;;;5033039;28;4997;-70
2023/03/24 11:58:07;;;;;;;;;;;;;;;;;;5042656;28;4638;-72
2023/03/24 12:00:34;;;;;;;;;;;;;;;;;;5045119;28;5113;-70
2023/03/24 12:03:18;;;;;;;;;;;;;;;;;;5038515;28;4670;-70
2023/03/24 12:05:47;;;;;;;;;;;;;;;;;;5033413;28;4904;-69
2023/03/24 12:08:18;;;;;;;;;;;;;;;;;;5076297;28;5281;-66
2023/03/24 12:11:02;;;;;;;;;;;;;;;;;;5045343;28;1225;-68
2023/03/24 12:13:30;;;;;;;;;;;;;;;;;;5040058;28;4908;-67
2023/03/24 12:15:59;;;;;;;;;;;;;;;;;;5043596;28;4592;-70
2023/03/24 12:18:36;;;;;;;;;;;;;;;;;;5043707;28;4469;-71
2023/03/24 12:21:08;;;;;;;;;;;;;;;;;;5041621;28;4635;-72
2023/03/24 12:23:33;;;;;;;;;;;;;;;;;;5036741;28;4527;-70
2023/03/24 12:26:05;;;;;;;;;;;;;;;;;;5041231;28;5303;-69
2023/03/24 12:28:57;;;;;;;;;;;;;;;;;;5048144;28;1045;-70
2023/03/24 12:31:41;;;;;;;;;;;;;;;;;;5043969;28;5010;-68
2023/03/24 12:34:10;;;;;;;;;;;;;;;;;;5043525;28;4396;-72
2023/03/24 12:36:53;;;;;;;;;;;;;;;;;;5042910;28;4471;-69
2023/03/24 12:39:42;;;;;;;;;;;;;;;;;;5047189;28;4523;-65
2023/03/24 12:42:11;;;;;;;;;;;;;;;;;;5042631;28;4447;-65
2023/03/24 12:44:58;;;;;;;;;;;;;;;;;;5040206;28;4790;-66
2023/03/24 12:47:29;;;;;;;;;;;;;;;;;;5039935;28;5220;-70
2023/03/24 12:49:55;;;;;;;;;;;;;;;;;;5046026;28;4595;-69
2023/03/24 12:52:23;;;;;;;;;;;;;;;;;;5040716;28;1793;-70
2023/03/24 12:55:07;;;;;;;;;;;;;;;;;;5042263;28;4683;-68
2023/03/24 12:57:56;;;;;;;;;;;;;;;;;;5039579;28;5084;-68
2023/03/24 13:00:23;;;;;;;;;;;;;;;;;;5038861;28;4574;-70
2023/03/24 13:02:50;;;;;;;;;;;;;;;;;;5027501;28;5057;-67
2023/03/24 13:05:20;;;;;;;;;;;;;;;;;;5036551;28;4638;-64
2023/03/24 13:07:52;;;;;;;;;;;;;;;;;;5040860;28;1910;-69
2023/03/24 13:10:20;;;;;;;;;;;;;;;;;;5074731;28;5047;-69
2023/03/24 13:12:57;;;;;;;;;;;;;;;;;;5047074;28;4400;-69
2023/03/24 13:15:38;;;;;;;;;;;;;;;;;;5045678;28;4492;-67
2023/03/24 13:18:10;;;;;;;;;;;;;;;;;;5046911;28;4973;-70
2023/03/24 13:20:39;;;;;;;;;;;;;;;;;;5037583;28;4487;-70
2023/03/24 13:23:24;;;;;;;;;;;;;;;;;;5040368;28;4679;-67
2023/03/24 13:25:56;;;;;;;;;;;;;;;;;;5025578;28;4689;-69
2023/03/24 13:28:24;;;;;;;;;;;;;;;;;;5046646;28;3091;-71
2023/03/24 13:30:49;;;;;;;;;;;;;;;;;;5042045;28;4479;-67
2023/03/24 13:33:15;;;;;;;;;;;;;;;;;;5038182;28;5041;-69
2023/03/24 13:35:43;;;;;;;;;;;;;;;;;;5041619;28;5074;-69
2023/03/24 13:38:32;;;;;;;;;;;;;;;;;;5051059;28;4542;-71
2023/03/24 13:40:57;;;;;;;;;;;;;;;;;;5043566;28;4671;-68
2023/03/24 13:43:24;;;;;;;;;;;;;;;;;;5047757;28;1146;-68
2023/03/24 13:45:50;;;;;;;;;;;;;;;;;;5040098;28;4444;-64
2023/03/24 13:48:31;;;;;;;;;;;;;;;;;;5037758;28;4494;-63
2023/03/24 13:50:58;;;;;;;;;;;;;;;;;;5046589;28;4467;-64
2023/03/24 13:53:33;;;;;;;;;;;;;;;;;;5047612;28;4470;-64
2023/03/24 13:55:59;;;;;;;;;;;;;;;;;;5041445;28;4497;-64
2023/03/24 13:58:27;;;;;;;;;;;;;;;;;;5044548;28;3464;-64
2023/03/24 14:01:07;;;;;;;;;;;;;;;;;;5048313;28;4559;-64
2023/03/24 14:03:36;;;;;;;;;;;;;;;;;;5048508;28;4421;-64
2023/03/24 14:06:03;;;;;;;;;;;;;;;;;;5045370;28;5212;-64
2023/03/24 14:08:40;;;;;;;;;;;;;;;;;;5044689;28;4970;-64
2023/03/24 14:11:09;;;;;;;;;;;;;;;;;;5041791;28;5037;-66
2023/03/24 14:13:35;;;;;;;;;;;;;;;;;;5047380;28;3069;-64
2023/03/24 14:16:20;;;;;;;;;;;;;;;;;;5043057;28;4846;-64
2023/03/24 14:18:46;;;;;;;;;;;;;;;;;;5043411;28;4615;-65
2023/03/24 14:21:11;;;;;;;;;;;;;;;;;;5035777;28;4978;-63
2023/03/24 14:23:44;;;;;;;;;;;;;;;;;;5046459;28;4661;-66
2023/03/24 14:26:35;;;;;;;;;;;;;;;;;;5044037;28;4828;-63
2023/03/24 14:29:00;;;;;;;;;;;;;;;;;;5044275;28;4527;-64
2023/03/24 14:31:27;;;;;;;;;;;;;;;;;;5046704;28;1222;-65
2023/03/24 14:33:52;;;;;;;;;;;;;;;;;;5047962;28;5161;-66
2023/03/24 14:36:24;;;;;;;;;;;;;;;;;;5040857;28;5163;-65
2023/03/24 14:38:50;;;;;;;;;;;;;;;;;;5038835;28;4503;-60
2023/03/24 14:41:15;;;;;;;;;;;;;;;;;;5048386;28;5366;-66
2023/03/24 14:43:41;;;;;;;;;;;;;;;;;;5044623;28;3298;-63
2023/03/24 14:46:18;;;;;;;;;;;;;;;;;;5041957;28;4411;-63
2023/03/24 14:49:02;;;;;;;;;;;;;;;;;;5036599;28;4607;-67
2023/03/24 14:51:28;;;;;;;;;;;;;;;;;;5032999;28;4852;-64
2023/03/24 14:53:56;;;;;;;;;;;;;;;;;;5039637;28;4667;-68
2023/03/24 14:56:22;;;;;;;;;;;;;;;;;;5041288;28;5046;-72
2023/03/24 14:58:47;;;;;;;;;;;;;;;;;;5034579;28;4483;-74
2023/03/24 15:01:13;;;;;;;;;;;;;;;;;;5038760;28;1229;-76
2023/03/24 15:03:48;;;;;;;;;;;;;;;;;;5041291;28;4684;-76
2023/03/24 15:06:15;;;;;;;;;;;;;;;;;;5038121;28;4502;-76
2023/03/24 15:08:44;;;;;;;;;;;;;;;;;;5042454;28;4718;-76
2023/03/24 15:11:09;;;;;;;;;;;;;;;;;;5045950;28;5139;-75
2023/03/24 15:13:38;;;;;;;;;;;;;;;;;;5036722;28;2947;-77
2023/03/24 15:16:15;;;;;;;;;;;;;;;;;;5042938;28;4666;-79
2023/03/24 15:18:54;;;;;;;;;;;;;;;;;;5034104;28;4578;-78
2023/03/24 15:21:29;;;;;;;;;;;;;;;;;;5039938;28;4492;-77
2023/03/24 15:23:54;;;;;;;;;;;;;;;;;;5042001;28;5441;-77
2023/03/24 15:26:23;;;;;;;;;;;;;;;;;;5042915;28;4487;-76
2023/03/24 15:29:08;;;;;;;;;;;;;;;;;;5042809;28;5083;-76
2023/03/24 15:31:33;;;;;;;;;;;;;;;;;;5043493;28;3385;-76
2023/03/24 15:34:17;;;;;;;;;;;;;;;;;;5040000;28;4462;-77
2023/03/24 15:36:45;;;;;;;;;;;;;;;;;;5041168;28;4460;-73
2023/03/24 15:39:17;;;;;;;;;;;;;;;;;;5040857;28;4477;-77
2023/03/24 15:41:43;;;;;;;;;;;;;;;;;;5040532;28;5045;-72
2023/03/24 15:44:08;;;;;;;;;;;;;;;;;;5044692;28;5135;-75
2023/03/24 15:46:33;;;;;;;;;;;;;;;;;;5078577;28;3188;-74
2023/03/24 15:48:58;;;;;;;;;;;;;;;;;;5038425;28;4836;-75
2023/03/24 15:51:42;;;;;;;;;;;;;;;;;;5043651;28;5033;-75
2023/03/24 15:54:14;;;;;;;;;;;;;;;;;;5040605;28;4455;-74
2023/03/24 15:56:40;;;;;;;;;;;;;;;;;;5031038;28;4503;-77
2023/03/24 15:59:06;;;;;;;;;;;;;;;;;;5046987;28;4656;-74
2023/03/24 16:01:37;;;;;;;;;;;;;;;;;;5045921;28;1272;-77
2023/03/24 16:04:15;;;;;;;;;;;;;;;;;;5040049;28;5095;-76
2023/03/24 16:06:41;;;;;;;;;;;;;;;;;;5018345;28;4687;-74
2023/03/24 16:09:09;;;;;;;;;;;;;;;;;;5060823;28;5177;-75
2023/03/24 16:11:34;;;;;;;;;;;;;;;;;;5033487;28;5173;-78
2023/03/24 16:14:00;;;;;;;;;;;;;;;;;;5041843;28;4507;-77
2023/03/24 16:16:26;;;;;;;;;;;;;;;;;;5039476;28;3188;-78
2023/03/24 16:18:51;;;;;;;;;;;;;;;;;;5039699;28;4722;-76
2023/03/24 16:21:20;;;;;;;;;;;;;;;;;;5037801;28;5071;-76
2023/03/24 16:23:46;;;;;;;;;;;;;;;;;;5034232;28;4982;-76
2023/03/24 16:26:12;;;;;;;;;;;;;;;;;;5042446;28;4645;-70
2023/03/24 16:28:37;;;;;;;;;;;;;;;;;;5044391;28;1092;-75
2023/03/24 16:31:03;;;;;;;;;;;;;;;;;;5038354;28;5439;-74
2023/03/24 16:33:29;;;;;;;;;;;;;;;;;;5043915;28;4839;-72
2023/03/24 16:35:54;;;;;;;;;;;;;;;;;;5039929;28;4707;-74
2023/03/24 16:38:20;;;;;;;;;;;;;;;;;;5045725;28;5538;-71
2023/03/24 16:40:47;;;;;;;;;;;;;;;;;;5043855;28;3238;-64
2023/03/24 16:43:14;;;;;;;;;;;;;;;;;;5064219;28;4900;-65
2023/03/24 16:45:39;;;;;;;;;;;;;;;;;;5034705;28;4844;-64
2023/03/24 16:48:04;;;;;;;;;;;;;;;;;;5060826;28;4709;-64
2023/03/24 16:50:40;;;;;;;;;;;;;;;;;;5035941;28;4511;-64
2023/03/24 16:53:07;;;;;;;;;;;;;;;;;;5046197;28;5009;-64
2023/03/24 16:55:32;;;;;;;;;;;;;;;;;;5042745;28;3256;-64
2023/03/24 16:57:57;;;;;;;;;;;;;;;;;;5066397;28;4931;-64
2023/03/24 17:00:23;;;;;;;;;;;;;;;;;;5039482;28;4767;-64
2023/03/24 17:02:48;;;;;;;;;;;;;;;;;;5042758;28;5217;-65
2023/03/24 17:05:21;;;;;;;;;;;;;;;;;;5045595;28;4646;-63
2023/03/24 17:07:46;;;;;;;;;;;;;;;;;;5045968;28;4988;-64
2023/03/24 17:10:11;;;;;;;;;;;;;;;;;;5033638;28;3255;-63
2023/03/24 17:12:37;;;;;;;;;;;;;;;;;;5039413;28;4509;-64
2023/03/24 17:15:02;;;;;;;;;;;;;;;;;;5048299;28;4900;-63